Time;durP1;ratioP1;P1;durP2;ratioP2;P2;SDS_P1;SDS_P2;PMS_P1;PMS_P2;Temp;Humidity;BMP_temperature;BMP_pressure;BME280_temperature;BME280_humidity;BME280_pressure;Samples;Min_cycle;Max_cycle;Signal;HPM_P1;HPM_P2
2023/09/01 00:00:41;;;;;;;27.70;6.23;;;25.90;51.30;;;;;;5106855;28;20198;-76
2023/09/01 00:03:08;;;;;;;30.40;5.87;;;25.90;51.90;;;;;;5104563;28;20206;-76
2023/09/01 00:05:36;;;;;;;33.20;6.10;;;25.90;51.20;;;;;;5097239;28;20565;-76
2023/09/01 00:08:03;;;;;;;41.53;7.00;;;25.90;51.30;;;;;;5107616;28;20241;-76
2023/09/01 00:10:30;;;;;;;43.63;7.07;;;25.90;51.30;;;;;;5107825;28;20285;-77
2023/09/01 00:12:59;;;;;;;28.67;5.93;;;25.90;51.30;;;;;;5107477;28;20792;-77
2023/09/01 00:15:28;;;;;;;27.80;5.63;;;25.80;51.20;;;;;;5111474;27;20218;-76
2023/09/01 00:17:55;;;;;;;21.17;5.17;;;25.90;51.30;;;;;;5110388;28;20205;-76
2023/09/01 00:20:22;;;;;;;42.20;7.40;;;25.90;51.30;;;;;;5109080;28;20278;-77
2023/09/01 00:22:49;;;;;;;25.37;5.53;;;25.80;51.20;;;;;;5111566;28;20229;-76
2023/09/01 00:25:16;;;;;;;28.50;5.77;;;25.80;51.20;;;;;;5110017;28;20694;-76
2023/09/01 00:27:43;;;;;;;31.37;6.07;;;25.80;51.20;;;;;;5111338;28;20199;-77
2023/09/01 00:30:11;;;;;;;26.67;5.77;;;25.90;51.30;;;;;;5110148;28;20289;-76
2023/09/01 00:32:40;;;;;;;21.90;5.50;;;25.80;51.20;;;;;;5108997;28;20202;-77
2023/09/01 00:35:07;;;;;;;29.33;5.87;;;25.80;51.20;;;;;;5108041;28;20213;-76
2023/09/01 00:37:35;;;;;;;28.20;6.00;;;25.80;51.20;;;;;;5108869;28;20305;-77
2023/09/01 00:40:03;;;;;;;30.47;5.93;;;25.80;51.20;;;;;;5099013;28;20310;-77
2023/09/01 00:42:31;;;;;;;33.10;6.47;;;25.80;51.20;;;;;;5090277;28;20202;-76
2023/09/01 00:44:58;;;;;;;25.33;5.53;;;25.80;51.20;;;;;;5104579;28;20288;-75
2023/09/01 00:47:25;;;;;;;27.80;5.60;;;25.80;51.20;;;;;;5094213;27;20281;-76
2023/09/01 00:49:53;;;;;;;28.73;5.43;;;25.80;51.20;;;;;;5111152;28;20198;-76
2023/09/01 00:52:20;;;;;;;32.27;6.53;;;25.80;51.20;;;;;;5110282;27;20230;-76
2023/09/01 00:54:47;;;;;;;26.10;5.67;;;25.80;51.80;;;;;;5098539;28;20294;-75
2023/09/01 00:57:14;;;;;;;28.00;5.87;;;25.80;51.20;;;;;;5100870;28;20613;-76
2023/09/01 00:59:41;;;;;;;30.33;5.87;;;25.80;51.20;;;;;;5109798;28;20230;-78
2023/09/01 01:02:08;;;;;;;22.83;5.70;;;25.80;51.20;;;;;;5097177;27;20207;-76
2023/09/01 01:04:35;;;;;;;36.20;6.63;;;25.80;51.20;;;;;;5092190;27;20206;-76
2023/09/01 01:07:12;;;;;;;38.40;7.07;;;25.80;51.20;;;;;;5103690;28;20238;-76
2023/09/01 01:09:57;;;;;;;51.80;7.93;;;25.80;51.20;;;;;;5100135;28;20205;-77
2023/09/01 01:12:34;;;;;;;32.40;6.63;;;25.80;51.80;;;;;;5092679;28;20654;-77
2023/09/01 01:15:08;;;;;;;26.07;5.70;;;25.80;51.20;;;;;;5089491;28;20226;-77
2023/09/01 01:17:39;;;;;;;32.67;6.40;;;25.80;51.20;;;;;;5105087;28;20205;-77
2023/09/01 01:20:20;;;;;;;37.90;6.87;;;25.80;51.20;;;;;;5091832;28;20215;-79
2023/09/01 01:22:49;;;;;;;36.80;6.53;;;25.80;51.20;;;;;;5108446;28;20202;-76
2023/09/01 01:25:19;;;;;;;37.50;6.90;;;25.80;51.20;;;;;;5093566;27;20575;-77
2023/09/01 01:27:46;;;;;;;30.23;6.63;;;25.70;51.20;;;;;;5091859;28;20202;-78
2023/09/01 01:30:15;;;;;;;31.43;6.27;;;25.70;51.20;;;;;;5108171;28;20309;-76
2023/09/01 01:32:42;;;;;;;26.90;5.67;;;25.70;51.20;;;;;;5102111;28;20272;-76
2023/09/01 01:35:17;;;;;;;25.53;5.67;;;25.70;51.20;;;;;;5089190;28;20705;-77
2023/09/01 01:37:51;;;;;;;21.97;5.57;;;25.70;51.20;;;;;;5089032;28;20198;-76
2023/09/01 01:40:21;;;;;;;34.57;6.53;;;25.70;51.20;;;;;;5095192;28;20313;-76
2023/09/01 01:42:52;;;;;;;43.13;7.30;;;25.70;51.20;;;;;;5094015;27;20627;-76
2023/09/01 01:45:22;;;;;;;39.00;6.77;;;25.70;51.20;;;;;;5089444;27;20673;-76
2023/09/01 01:47:51;;;;;;;38.63;6.97;;;25.70;51.30;;;;;;5109218;27;20234;-77
2023/09/01 01:50:19;;;;;;;24.47;5.53;;;25.70;51.30;;;;;;5108011;27;20278;-77
2023/09/01 01:52:46;;;;;;;27.63;5.87;;;25.70;51.30;;;;;;5105974;28;20560;-77
2023/09/01 01:55:13;;;;;;;29.57;6.17;;;25.70;51.30;;;;;;5109587;28;20247;-77
2023/09/01 01:57:41;;;;;;;25.07;5.80;;;25.70;51.30;;;;;;5106534;28;20202;-77
2023/09/01 02:00:14;;;;;;;21.97;5.60;;;25.70;51.30;;;;;;5108465;28;20741;-77
2023/09/01 02:02:42;;;;;;;24.73;5.60;;;25.70;51.40;;;;;;5097407;28;20222;-76
2023/09/01 02:05:10;;;;;;;24.00;5.23;;;25.70;51.40;;;;;;5089143;27;20202;-77
2023/09/01 02:07:37;;;;;;;25.57;5.83;;;25.70;51.40;;;;;;5093042;27;20287;-76
2023/09/01 02:10:06;;;;;;;28.83;6.13;;;25.70;51.40;;;;;;5105157;28;20313;-75
2023/09/01 02:12:33;;;;;;;30.70;6.43;;;25.70;51.40;;;;;;5108856;28;20672;-76
2023/09/01 02:15:03;;;;;;;32.80;6.03;;;25.70;51.40;;;;;;5109361;28;20197;-77
2023/09/01 02:17:30;;;;;;;27.20;5.77;;;25.70;51.50;;;;;;5108452;28;20232;-76
2023/09/01 02:19:57;;;;;;;41.77;7.03;;;25.70;52.10;;;;;;5107617;28;20203;-76
2023/09/01 02:22:24;;;;;;;39.50;6.60;;;25.70;51.40;;;;;;5104186;28;20194;-76
2023/09/01 02:24:51;;;;;;;24.13;5.70;;;25.70;52.10;;;;;;5108442;28;20384;-75
2023/09/01 02:27:18;;;;;;;27.40;6.03;;;25.70;51.50;;;;;;5109169;27;20285;-76
2023/09/01 02:29:45;;;;;;;25.20;5.33;;;25.70;51.50;;;;;;5108890;28;20288;-76
2023/09/01 02:32:13;;;;;;;27.27;5.33;;;25.70;51.50;;;;;;5107827;28;20309;-75
2023/09/01 02:34:40;;;;;;;29.57;6.13;;;25.60;51.40;;;;;;5108794;28;20662;-75
2023/09/01 02:37:07;;;;;;;36.30;6.87;;;25.60;51.40;;;;;;5107127;27;20305;-76
2023/09/01 02:39:34;;;;;;;25.73;5.83;;;25.60;51.50;;;;;;5108663;28;20244;-76
2023/09/01 02:42:01;;;;;;;43.33;7.23;;;25.60;51.50;;;;;;5098248;27;20206;-73
2023/09/01 02:44:28;;;;;;;28.60;5.87;;;25.60;52.10;;;;;;5096598;28;20240;-74
2023/09/01 02:46:55;;;;;;;30.07;5.87;;;25.60;51.50;;;;;;5091406;27;20203;-74
2023/09/01 02:49:23;;;;;;;24.07;6.13;;;25.70;51.60;;;;;;5088772;27;20274;-73
2023/09/01 02:51:50;;;;;;;29.87;6.33;;;25.60;51.60;;;;;;5093158;28;20210;-74
2023/09/01 02:54:19;;;;;;;34.57;6.67;;;25.60;51.60;;;;;;5104731;27;21991;-75
2023/09/01 02:56:46;;;;;;;43.43;7.17;;;25.60;51.60;;;;;;5091395;28;20231;-76
2023/09/01 02:59:13;;;;;;;46.63;8.20;;;25.60;51.60;;;;;;5093323;28;20281;-77
2023/09/01 03:01:39;;;;;;;40.43;7.17;;;25.60;51.60;;;;;;5105807;28;20289;-77
2023/09/01 03:04:07;;;;;;;44.10;7.23;;;25.60;51.60;;;;;;5087312;28;20203;-73
2023/09/01 03:06:36;;;;;;;36.67;6.60;;;25.60;51.60;;;;;;5087633;27;20199;-74
2023/09/01 03:09:04;;;;;;;28.40;5.93;;;25.60;51.60;;;;;;5088531;28;20203;-72
2023/09/01 03:11:31;;;;;;;62.93;8.97;;;25.60;51.60;;;;;;5101711;28;20281;-72
2023/09/01 03:13:58;;;;;;;22.00;5.67;;;25.60;51.60;;;;;;5087638;28;20313;-72
2023/09/01 03:16:25;;;;;;;36.30;7.03;;;25.60;51.60;;;;;;5097570;28;20225;-72
2023/09/01 03:18:57;;;;;;;44.13;7.73;;;25.60;51.70;;;;;;5101564;28;20971;-72
2023/09/01 03:21:24;;;;;;;27.83;6.00;;;25.60;51.60;;;;;;5101196;28;20206;-73
2023/09/01 03:23:52;;;;;;;30.50;6.33;;;25.60;51.70;;;;;;5088767;28;20230;-72
2023/09/01 03:26:19;;;;;;;23.63;5.70;;;25.60;51.70;;;;;;5088407;28;20206;-72
2023/09/01 03:28:46;;;;;;;31.00;6.50;;;25.50;51.60;;;;;;5094172;28;20183;-72
2023/09/01 03:31:13;;;;;;;28.67;6.17;;;25.50;51.60;;;;;;5095439;28;20627;-72
2023/09/01 03:33:41;;;;;;;28.50;6.10;;;25.50;51.60;;;;;;5092087;28;20672;-73
2023/09/01 03:36:09;;;;;;;31.67;6.20;;;25.60;51.70;;;;;;5087519;28;20855;-73
2023/09/01 03:38:36;;;;;;;26.90;6.00;;;25.60;51.70;;;;;;5087707;28;20207;-72
2023/09/01 03:41:05;;;;;;;32.93;6.47;;;25.50;51.70;;;;;;5102414;28;20947;-72
2023/09/01 03:43:33;;;;;;;36.23;6.23;;;25.50;51.70;;;;;;5099597;28;20204;-72
2023/09/01 03:46:00;;;;;;;31.03;6.23;;;25.50;51.70;;;;;;5087689;28;20242;-73
2023/09/01 03:48:27;;;;;;;44.67;7.57;;;25.50;51.70;;;;;;5088643;28;20289;-72
2023/09/01 03:51:07;;;;;;;22.33;5.43;;;25.50;51.70;;;;;;5108212;28;20196;-73
2023/09/01 03:53:34;;;;;;;34.90;6.87;;;25.50;51.80;;;;;;5099441;28;20212;-72
2023/09/01 03:56:01;;;;;;;27.03;6.27;;;25.50;52.30;;;;;;5107954;28;20229;-73
2023/09/01 03:58:30;;;;;;;32.13;6.37;;;25.50;51.80;;;;;;5096888;28;20198;-73
2023/09/01 04:00:57;;;;;;;29.23;6.23;;;25.50;52.40;;;;;;5100813;28;20658;-72
2023/09/01 04:03:24;;;;;;;31.40;6.50;;;25.50;51.80;;;;;;5092004;28;20211;-73
2023/09/01 04:05:56;;;;;;;25.00;5.80;;;25.40;51.70;;;;;;5107560;28;20202;-72
2023/09/01 04:08:23;;;;;;;35.80;6.93;;;25.50;51.80;;;;;;5105627;28;20201;-74
2023/09/01 04:10:50;;;;;;;28.87;6.37;;;25.40;51.80;;;;;;5104271;28;20206;-76
2023/09/01 04:13:17;;;;;;;27.13;5.90;;;25.50;51.80;;;;;;5114022;27;20308;-77
2023/09/01 04:15:45;;;;;;;26.17;5.73;;;25.50;51.90;;;;;;5106914;28;20202;-74
2023/09/01 04:18:12;;;;;;;33.77;6.47;;;25.40;51.90;;;;;;5096319;28;20305;-74
2023/09/01 04:20:39;;;;;;;33.03;6.77;;;25.50;51.90;;;;;;5107700;28;20199;-75
2023/09/01 04:23:06;;;;;;;29.63;6.13;;;25.40;51.90;;;;;;5108310;28;20284;-76
2023/09/01 04:25:34;;;;;;;30.30;6.00;;;25.40;51.90;;;;;;5111280;28;20804;-73
2023/09/01 04:28:01;;;;;;;31.93;6.13;;;25.40;51.90;;;;;;5109715;28;20764;-73
2023/09/01 04:30:28;;;;;;;19.67;5.07;;;25.40;51.90;;;;;;5107772;28;20297;-73
2023/09/01 04:32:56;;;;;;;41.97;7.30;;;25.40;51.90;;;;;;5104919;28;20290;-73
2023/09/01 04:35:23;;;;;;;22.53;5.57;;;25.50;52.00;;;;;;5111385;28;20220;-72
2023/09/01 04:37:50;;;;;;;28.53;5.97;;;25.50;52.00;;;;;;5109159;28;20220;-73
2023/09/01 04:40:17;;;;;;;31.97;6.57;;;25.40;51.90;;;;;;5098721;28;20237;-76
2023/09/01 04:42:44;;;;;;;52.40;8.20;;;25.50;52.00;;;;;;5106952;28;20289;-73
2023/09/01 04:45:11;;;;;;;26.07;6.00;;;25.40;52.00;;;;;;5099003;27;20294;-75
2023/09/01 04:47:38;;;;;;;20.20;5.40;;;25.40;52.00;;;;;;5108250;28;20202;-75
2023/09/01 04:50:07;;;;;;;34.00;6.30;;;25.40;52.00;;;;;;5098115;28;20194;-73
2023/09/01 04:52:34;;;;;;;31.30;6.53;;;25.40;52.00;;;;;;5090458;28;20202;-76
2023/09/01 04:55:01;;;;;;;29.23;6.40;;;25.40;52.00;;;;;;5104486;28;20309;-72
2023/09/01 04:57:28;;;;;;;28.33;6.43;;;25.40;52.00;;;;;;5101101;28;20341;-74
2023/09/01 04:59:55;;;;;;;33.53;6.83;;;25.40;52.00;;;;;;5102445;28;20289;-72
2023/09/01 05:02:22;;;;;;;22.70;5.77;;;25.40;52.00;;;;;;5089669;28;20256;-72
2023/09/01 05:04:49;;;;;;;36.30;6.60;;;25.40;52.00;;;;;;5098229;27;20316;-73
2023/09/01 05:07:17;;;;;;;33.83;6.87;;;25.50;52.10;;;;;;5110403;28;20321;-73
2023/09/01 05:09:44;;;;;;;29.20;6.20;;;25.40;52.10;;;;;;5110318;27;20205;-72
2023/09/01 05:12:11;;;;;;;29.00;6.33;;;25.40;52.00;;;;;;5110955;28;20289;-73
2023/09/01 05:14:38;;;;;;;28.00;5.73;;;25.40;52.10;;;;;;5100183;28;20290;-73
2023/09/01 05:17:05;;;;;;;42.77;7.20;;;25.40;52.10;;;;;;5098171;27;20218;-74
2023/09/01 05:19:32;;;;;;;40.73;7.10;;;25.40;52.10;;;;;;5106078;28;20298;-75
2023/09/01 05:21:59;;;;;;;34.47;6.57;;;25.40;52.10;;;;;;5100209;27;20281;-73
2023/09/01 05:24:28;;;;;;;23.90;5.80;;;25.40;52.10;;;;;;5094629;28;20197;-73
2023/09/01 05:26:55;;;;;;;41.57;7.13;;;25.40;52.10;;;;;;5103915;28;20222;-72
2023/09/01 05:29:22;;;;;;;44.10;7.27;;;25.40;52.10;;;;;;5095383;27;20202;-73
2023/09/01 05:31:49;;;;;;;21.73;5.50;;;25.40;52.20;;;;;;5110415;28;20237;-72
2023/09/01 05:34:15;;;;;;;32.77;6.57;;;25.40;52.20;;;;;;5098202;28;20606;-74
2023/09/01 05:36:42;;;;;;;20.20;5.47;;;25.40;52.20;;;;;;5094567;27;20261;-73
2023/09/01 05:39:10;;;;;;;21.03;5.60;;;25.40;52.80;;;;;;5104530;28;20285;-72
2023/09/01 05:41:38;;;;;;;38.70;7.23;;;25.40;52.20;;;;;;5096237;28;20208;-73
2023/09/01 05:44:06;;;;;;;30.47;6.30;;;25.40;52.20;;;;;;5100169;27;20704;-74
2023/09/01 05:46:32;;;;;;;25.43;5.80;;;25.40;52.20;;;;;;5089055;27;20298;-73
2023/09/01 05:48:59;;;;;;;20.33;5.73;;;25.40;52.20;;;;;;5092905;27;20213;-73
2023/09/01 05:51:26;;;;;;;19.77;5.40;;;25.40;52.20;;;;;;5105855;28;20190;-73
2023/09/01 05:53:53;;;;;;;28.50;6.10;;;25.40;52.20;;;;;;5099093;27;20230;-74
2023/09/01 05:56:20;;;;;;;27.50;6.40;;;25.40;52.20;;;;;;5090414;28;20293;-74
2023/09/01 05:58:49;;;;;;;23.63;5.77;;;25.40;52.20;;;;;;5089015;28;20206;-73
2023/09/01 06:01:15;;;;;;;27.90;6.37;;;25.40;52.30;;;;;;5094589;28;20197;-73
2023/09/01 06:03:42;;;;;;;29.83;6.33;;;25.40;52.30;;;;;;5093283;27;20684;-72
2023/09/01 06:06:09;;;;;;;24.37;6.03;;;25.40;52.90;;;;;;5088828;27;20317;-73
2023/09/01 06:08:36;;;;;;;21.93;5.40;;;25.40;52.30;;;;;;5098374;28;20972;-74
2023/09/01 06:11:05;;;;;;;34.30;6.57;;;25.40;52.30;;;;;;5094333;28;20229;-74
2023/09/01 06:13:32;;;;;;;24.93;6.00;;;25.40;52.30;;;;;;5090166;28;20259;-73
2023/09/01 06:16:02;;;;;;;24.23;6.00;;;25.40;52.90;;;;;;5109178;28;20293;-73
2023/09/01 06:18:29;;;;;;;19.77;5.27;;;25.40;52.40;;;;;;5109298;28;20245;-76
2023/09/01 06:20:56;;;;;;;24.87;5.70;;;25.40;52.30;;;;;;5109034;28;20251;-73
2023/09/01 06:23:23;;;;;;;31.77;6.40;;;25.40;52.40;;;;;;5108249;28;20204;-74
2023/09/01 06:25:50;;;;;;;27.57;6.33;;;25.40;52.40;;;;;;5108917;28;20293;-78
2023/09/01 06:28:17;;;;;;;21.73;5.57;;;25.40;52.40;;;;;;5108320;28;20204;-78
2023/09/01 06:30:44;;;;;;;23.23;5.87;;;25.40;52.40;;;;;;5108969;28;20304;-73
2023/09/01 06:33:13;;;;;;;28.53;5.77;;;25.40;52.40;;;;;;5109048;28;20293;-74
2023/09/01 06:35:40;;;;;;;29.60;6.07;;;25.30;52.40;;;;;;5109067;28;20288;-73
2023/09/01 06:38:07;;;;;;;27.07;6.00;;;25.40;52.40;;;;;;5108788;28;20534;-73
2023/09/01 06:40:34;;;;;;;34.73;6.53;;;25.30;52.40;;;;;;5107991;28;20258;-73
2023/09/01 06:43:03;;;;;;;26.40;6.13;;;25.30;52.40;;;;;;5108264;28;20269;-75
2023/09/01 06:45:30;;;;;;;22.43;5.70;;;25.40;52.50;;;;;;5097840;27;20287;-73
2023/09/01 06:47:57;;;;;;;33.63;6.73;;;25.30;52.40;;;;;;5104106;28;20787;-78
2023/09/01 06:50:26;;;;;;;27.20;6.13;;;25.30;52.50;;;;;;5107120;28;20721;-79
2023/09/01 06:52:53;;;;;;;36.47;6.90;;;25.30;52.50;;;;;;5091821;27;20293;-73
2023/09/01 06:55:20;;;;;;;38.33;7.07;;;25.30;52.50;;;;;;5087513;28;20194;-75
2023/09/01 06:57:52;;;;;;;28.23;6.37;;;25.30;52.50;;;;;;5087214;28;20231;-74
2023/09/01 07:00:19;;;;;;;34.00;6.93;;;25.30;52.50;;;;;;5087377;28;20226;-74
2023/09/01 07:02:46;;;;;;;36.90;7.13;;;25.30;52.50;;;;;;5087088;28;20268;-76
2023/09/01 07:05:17;;;;;;;39.63;7.33;;;25.40;52.60;;;;;;5102928;27;20209;-73
2023/09/01 07:07:45;;;;;;;28.83;6.43;;;25.40;52.60;;;;;;5103550;28;20197;-78
2023/09/01 07:10:12;;;;;;;62.20;9.20;;;25.40;52.60;;;;;;5100600;28;20658;-75
2023/09/01 07:12:39;;;;;;;25.63;5.80;;;25.30;52.50;;;;;;5089504;28;20289;-78
2023/09/01 07:15:08;;;;;;;34.63;6.83;;;25.30;52.50;;;;;;5090524;28;20206;-74
2023/09/01 07:17:35;;;;;;;37.60;6.67;;;25.30;52.50;;;;;;5101507;28;20310;-77
2023/09/01 07:20:02;;;;;;;31.93;6.73;;;25.30;52.60;;;;;;5101419;28;20293;-77
2023/09/01 07:22:29;;;;;;;36.27;7.03;;;25.30;52.60;;;;;;5090845;28;20202;-77
2023/09/01 07:24:58;;;;;;;28.87;6.23;;;25.30;52.60;;;;;;5099616;28;20289;-75
2023/09/01 07:27:25;;;;;;;34.60;6.90;;;25.40;52.70;;;;;;5094402;28;20295;-76
2023/09/01 07:29:52;;;;;;;37.30;6.97;;;25.30;52.60;;;;;;5092031;28;20207;-78
2023/09/01 07:32:19;;;;;;;25.90;5.60;;;25.40;53.40;;;;;;5087657;28;20716;-78
2023/09/01 07:34:48;;;;;;;33.20;6.83;;;25.40;52.70;;;;;;5089274;28;20307;-77
2023/09/01 07:37:14;;;;;;;32.27;6.67;;;25.40;52.70;;;;;;5086835;28;20581;-78
2023/09/01 07:39:41;;;;;;;66.53;9.67;;;25.40;52.70;;;;;;5096320;28;20332;-76
2023/09/01 07:42:10;;;;;;;38.70;7.33;;;25.40;52.70;;;;;;5104172;28;20388;-76
2023/09/01 07:44:37;;;;;;;55.57;8.30;;;25.40;52.70;;;;;;5094857;28;20887;-78
2023/09/01 07:47:04;;;;;;;49.73;8.40;;;25.40;52.80;;;;;;5087581;28;20230;-76
2023/09/01 07:49:31;;;;;;;33.27;6.73;;;25.40;52.70;;;;;;5093515;28;20230;-78
2023/09/01 07:51:59;;;;;;;32.07;6.60;;;25.40;52.70;;;;;;5097548;28;20194;-74
2023/09/01 07:54:26;;;;;;;48.17;8.33;;;25.40;52.70;;;;;;5092302;28;20662;-77
2023/09/01 07:56:53;;;;;;;36.30;7.03;;;25.40;52.80;;;;;;5092051;28;20294;-79
2023/09/01 07:59:21;;;;;;;39.50;7.10;;;25.40;52.70;;;;;;5098770;27;20231;-79
2023/09/01 08:01:48;;;;;;;44.07;7.83;;;25.40;52.80;;;;;;5095173;28;20212;-81
2023/09/01 08:04:15;;;;;;;35.07;6.50;;;25.40;52.80;;;;;;5099237;27;20312;-78
2023/09/01 08:06:43;;;;;;;27.67;5.73;;;25.40;52.80;;;;;;5106295;27;20207;-77
2023/09/01 08:09:10;;;;;;;31.93;6.73;;;25.40;52.90;;;;;;5103824;28;20534;-77
2023/09/01 08:11:37;;;;;;;32.53;6.67;;;25.40;52.90;;;;;;5105349;28;20190;-78
2023/09/01 08:14:04;;;;;;;24.83;5.93;;;25.40;52.90;;;;;;5105718;28;20208;-74
2023/09/01 08:16:32;;;;;;;39.43;7.20;;;25.40;52.90;;;;;;5111782;28;20212;-72
2023/09/01 08:19:02;;;;;;;25.83;6.10;;;25.40;52.90;;;;;;5110567;28;20223;-75
2023/09/01 08:21:30;;;;;;;19.63;5.70;;;25.40;52.90;;;;;;5111321;28;20209;-72
2023/09/01 08:23:57;;;;;;;41.27;7.30;;;25.40;52.80;;;;;;5111255;28;20278;-80
2023/09/01 08:26:24;;;;;;;31.00;6.43;;;25.40;52.80;;;;;;5111904;28;20280;-73
2023/09/01 08:28:51;;;;;;;46.20;7.87;;;25.40;52.80;;;;;;5110127;28;20198;-71
2023/09/01 08:31:18;;;;;;;55.27;8.63;;;25.40;52.80;;;;;;5107544;28;20602;-75
2023/09/01 08:33:47;;;;;;;45.20;7.83;;;25.40;52.80;;;;;;5106256;27;21562;-80
2023/09/01 08:36:14;;;;;;;106.03;13.17;;;25.40;52.90;;;;;;5098286;27;20280;-81
2023/09/01 08:38:41;;;;;;;32.60;6.37;;;25.40;52.80;;;;;;5095192;27;20234;-80
2023/09/01 08:41:08;;;;;;;72.90;10.47;;;25.40;52.80;;;;;;5099909;27;20208;-74
2023/09/01 08:43:38;;;;;;;51.77;8.20;;;25.40;52.80;;;;;;5099572;28;20206;-75
2023/09/01 08:46:06;;;;;;;36.03;6.93;;;25.30;52.80;;;;;;5106037;28;20210;-80
2023/09/01 08:48:33;;;;;;;25.97;6.13;;;25.40;52.90;;;;;;5108316;28;20325;-79
2023/09/01 08:51:03;;;;;;;22.63;5.63;;;25.30;52.80;;;;;;5112088;28;20245;-77
2023/09/01 08:53:30;;;;;;;25.60;5.47;;;25.30;53.50;;;;;;5110435;28;20286;-80
2023/09/01 08:55:57;;;;;;;22.77;5.77;;;25.40;53.00;;;;;;5109118;28;20259;-78
2023/09/01 08:58:24;;;;;;;23.60;5.77;;;25.40;53.00;;;;;;5095005;28;20222;-78
2023/09/01 09:00:51;;;;;;;20.80;5.17;;;25.30;53.10;;;;;;5091673;28;20213;-78
2023/09/01 09:03:19;;;;;;;36.50;7.07;;;25.40;53.20;;;;;;5102415;28;20246;-80
2023/09/01 09:05:46;;;;;;;16.67;4.97;;;25.40;53.20;;;;;;5111726;28;20635;-73
2023/09/01 09:08:15;;;;;;;21.13;5.17;;;25.40;53.20;;;;;;5111008;28;20209;-76
2023/09/01 09:10:43;;;;;;;27.13;5.77;;;25.40;53.20;;;;;;5109229;27;20202;-77
2023/09/01 09:13:24;;;;;;;32.23;6.37;;;25.40;53.30;;;;;;5109097;28;20288;-85
2023/09/01 09:16:12;;;;;;;28.23;6.47;;;25.40;53.30;;;;;;5099762;28;20958;-80
2023/09/01 09:18:41;;;;;;;42.33;7.83;;;25.40;53.40;;;;;;5088791;27;20708;-79
2023/09/01 09:21:26;;;;;;;41.57;7.17;;;25.40;53.30;;;;;;5105373;27;20202;-79
2023/09/01 09:23:56;;;;;;;36.47;6.37;;;25.40;53.50;;;;;;5090525;27;20191;-79
2023/09/01 09:26:25;;;;;;;26.93;6.07;;;25.40;53.30;;;;;;5099219;28;20273;-80
2023/09/01 09:28:53;;;;;;;39.03;6.93;;;25.50;53.40;;;;;;5116329;27;20293;-79
2023/09/01 09:31:30;;;;;;;84.80;11.30;;;25.50;53.30;;;;;;5096025;27;20198;-81
2023/09/01 09:33:57;;;;;;;51.77;8.30;;;25.50;53.40;;;;;;5102001;27;20212;-76
2023/09/01 09:36:33;;;;;;;45.07;6.87;;;25.50;53.30;;;;;;5105566;28;20194;-78
2023/09/01 09:39:02;;;;;;;18.87;5.13;;;25.50;53.40;;;;;;5105977;28;20240;-78
2023/09/01 09:41:45;;;;;;;25.63;5.23;;;25.60;53.40;;;;;;5111205;28;20194;-77
2023/09/01 09:44:12;;;;;;;47.50;7.57;;;25.60;53.50;;;;;;5090567;28;20252;-78
2023/09/01 09:46:44;;;;;;;43.20;6.90;;;25.60;53.40;;;;;;5089486;28;20237;-78
2023/09/01 09:49:12;;;;;;;27.00;6.10;;;25.60;53.40;;;;;;5095240;28;20227;-78
2023/09/01 09:51:40;;;;;;;46.67;7.60;;;25.60;53.30;;;;;;5098048;27;20553;-77
2023/09/01 09:54:12;;;;;;;24.43;5.77;;;25.60;53.30;;;;;;5089657;28;20250;-78
2023/09/01 09:56:39;;;;;;;32.40;6.27;;;25.60;53.30;;;;;;5096916;27;20212;-78
2023/09/01 09:59:07;;;;;;;35.40;6.70;;;25.60;53.30;;;;;;5095403;28;20712;-78
2023/09/01 10:01:39;;;;;;;43.20;7.27;;;25.60;53.30;;;;;;5091836;28;20306;-77
2023/09/01 10:04:07;;;;;;;27.33;5.83;;;25.70;54.00;;;;;;5090025;28;20294;-78
2023/09/01 10:06:36;;;;;;;40.53;7.30;;;25.70;53.40;;;;;;5089414;28;20730;-77
2023/09/01 10:09:04;;;;;;;29.27;5.97;;;25.70;53.40;;;;;;5095272;28;20191;-78
2023/09/01 10:11:32;;;;;;;25.20;5.90;;;25.70;53.50;;;;;;5089429;28;20207;-78
2023/09/01 10:14:01;;;;;;;29.93;5.90;;;25.70;53.60;;;;;;5091069;27;20688;-78
2023/09/01 10:16:30;;;;;;;32.10;6.27;;;25.70;53.60;;;;;;5097731;28;20297;-77
2023/09/01 10:18:57;;;;;;;20.90;5.23;;;25.70;53.70;;;;;;5095412;28;20415;-78
2023/09/01 10:21:24;;;;;;;32.10;6.10;;;25.70;53.70;;;;;;5094706;28;20817;-77
2023/09/01 10:23:51;;;;;;;51.53;7.97;;;25.80;53.80;;;;;;5095839;27;20197;-77
2023/09/01 10:26:25;;;;;;;30.10;6.27;;;25.80;54.40;;;;;;5096256;28;20279;-77
2023/09/01 10:29:01;;;;;;;27.80;5.67;;;25.80;53.90;;;;;;5106045;28;20296;-78
2023/09/01 10:31:28;;;;;;;37.53;6.83;;;25.80;53.90;;;;;;5100472;28;21122;-79
2023/09/01 10:36:13;;;;;;;70.97;10.67;;;25.90;53.40;;;;;;5090456;27;21601;-75
2023/09/01 10:38:41;;;;;;;30.30;6.53;;;26.00;54.10;;;;;;5090113;28;20221;-72
2023/09/01 10:41:08;;;;;;;23.27;5.93;;;26.00;53.90;;;;;;5087476;28;20263;-76
2023/09/01 10:43:53;;;;;;;23.90;5.90;;;26.10;54.00;;;;;;5081158;28;20205;-74
2023/09/01 10:46:28;;;;;;;63.53;9.80;;;26.10;54.10;;;;;;5082028;28;20212;-72
2023/09/01 10:48:57;;;;;;;72.83;10.80;;;26.10;54.00;;;;;;5077791;28;20590;-71
2023/09/01 10:53:57;;;;;;;17.37;4.63;;;26.20;53.40;;;;;;5103420;27;20555;-77
2023/09/01 10:56:25;;;;;;;28.53;5.77;;;26.20;54.00;;;;;;5107148;28;20195;-76
2023/09/01 10:58:53;;;;;;;27.50;5.77;;;26.20;54.00;;;;;;5091298;28;20286;-76
2023/09/01 11:01:30;;;;;;;23.53;5.50;;;26.30;54.00;;;;;;5086143;28;20302;-76
2023/09/01 11:04:27;;;;;;;26.37;5.73;;;26.30;54.10;;;;;;5085235;28;20248;-76
2023/09/01 11:07:04;;;;;;;32.37;6.17;;;26.30;54.00;;;;;;5083183;28;20207;-76
2023/09/01 11:09:52;;;;;;;31.30;6.27;;;26.30;54.10;;;;;;5079036;28;20277;-76
2023/09/01 11:12:19;;;;;;;36.40;6.23;;;26.40;54.20;;;;;;5081743;28;20222;-76
2023/09/01 11:14:58;;;;;;;40.37;6.83;;;26.40;54.10;;;;;;5079201;28;20210;-76
2023/09/01 11:17:38;;;;;;;54.17;8.40;;;26.40;54.20;;;;;;5083737;28;20277;-76
2023/09/01 11:20:08;;;;;;;36.30;6.80;;;26.40;54.20;;;;;;5083979;28;20670;-75
2023/09/01 11:22:40;;;;;;;27.43;5.73;;;26.40;54.10;;;;;;5084173;28;20245;-76
2023/09/01 11:25:15;;;;;;;32.30;6.13;;;26.50;54.20;;;;;;5079701;28;20316;-76
2023/09/01 11:27:53;;;;;;;44.00;7.23;;;26.50;54.30;;;;;;5083078;28;20287;-76
2023/09/01 11:30:20;;;;;;;29.90;5.83;;;26.50;54.20;;;;;;5068496;28;20199;-75
2023/09/01 11:32:48;;;;;;;28.20;6.10;;;26.60;54.30;;;;;;5084308;28;20250;-76
2023/09/01 11:35:23;;;;;;;27.90;5.70;;;26.60;54.30;;;;;;5084931;28;20577;-76
2023/09/01 11:37:50;;;;;;;59.10;8.63;;;26.60;54.30;;;;;;5081825;28;20561;-76
2023/09/01 11:40:19;;;;;;;29.00;5.80;;;26.70;54.30;;;;;;5085375;28;20881;-75
2023/09/01 11:42:46;;;;;;;25.33;5.50;;;26.70;54.30;;;;;;5081674;28;20206;-75
2023/09/01 11:45:13;;;;;;;21.80;5.33;;;26.70;54.10;;;;;;5073354;28;20204;-75
2023/09/01 11:47:41;;;;;;;37.80;6.70;;;26.80;54.10;;;;;;5084297;28;20286;-76
2023/09/01 11:50:14;;;;;;;27.17;5.77;;;26.80;54.10;;;;;;5083425;28;20195;-75
2023/09/01 11:52:59;;;;;;;36.67;6.57;;;26.80;54.10;;;;;;5083107;28;20250;-76
2023/09/01 11:55:36;;;;;;;42.80;7.17;;;26.80;54.10;;;;;;5081809;28;20214;-78
2023/09/01 11:58:04;;;;;;;50.37;8.07;;;26.80;54.10;;;;;;5081297;28;20846;-76
2023/09/01 12:00:33;;;;;;;28.97;5.77;;;26.90;54.10;;;;;;5084877;28;20245;-76
2023/09/01 12:03:03;;;;;;;26.77;5.60;;;26.80;54.00;;;;;;5079219;28;20291;-77
2023/09/01 12:05:31;;;;;;;26.27;5.43;;;26.90;54.00;;;;;;5050944;28;20189;-77
2023/09/01 12:08:00;;;;;;;26.60;5.60;;;26.90;54.00;;;;;;5066984;28;21080;-76
2023/09/01 12:10:27;;;;;;;26.17;5.57;;;26.90;54.00;;;;;;5071551;28;20192;-76
2023/09/01 12:13:07;;;;;;;34.53;6.17;;;26.90;54.00;;;;;;5069735;28;20307;-76
2023/09/01 12:15:35;;;;;;;47.43;7.80;;;26.90;54.00;;;;;;5071066;28;20191;-76
2023/09/01 12:18:26;;;;;;;31.20;5.93;;;26.90;54.00;;;;;;5069812;28;20200;-76
2023/09/01 12:20:53;;;;;;;32.87;6.53;;;26.90;54.10;;;;;;5055728;28;20323;-77
2023/09/01 12:23:26;;;;;;;28.60;5.90;;;26.90;54.00;;;;;;5069909;28;20234;-77
2023/09/01 12:25:53;;;;;;;29.47;5.93;;;26.90;54.00;;;;;;5070955;28;20214;-75
2023/09/01 12:28:21;;;;;;;19.53;4.87;;;26.90;54.00;;;;;;5068724;28;20286;-76
2023/09/01 12:30:48;;;;;;;30.73;5.90;;;26.90;54.00;;;;;;5069035;28;20660;-76
2023/09/01 12:33:15;;;;;;;26.10;5.40;;;26.80;53.90;;;;;;5069256;28;20223;-76
2023/09/01 12:35:42;;;;;;;18.90;5.07;;;26.90;54.00;;;;;;5071558;28;20207;-75
2023/09/01 12:38:09;;;;;;;26.67;5.90;;;26.80;53.90;;;;;;5066054;28;20287;-76
2023/09/01 12:40:36;;;;;;;21.97;5.33;;;26.80;53.90;;;;;;5065746;28;20200;-74
2023/09/01 12:43:03;;;;;;;33.70;6.57;;;26.80;53.90;;;;;;5070444;28;20227;-76
2023/09/01 12:45:32;;;;;;;26.47;5.40;;;26.80;54.00;;;;;;5069001;28;20730;-76
2023/09/01 12:47:59;;;;;;;28.50;5.77;;;26.80;53.90;;;;;;5070099;28;20222;-75